Nathalie — OJLP — position and weather

sailwx.info

Track history (hours):
 
Tides and Currents Weather Stations Pressure Air Temp Water Temp Dewpoint Dewpoint Depression Visibility Wind Speed Wind Dir Waves Ship Positions

Nathalie

Last reported at 2017-Mar-26 09:25 UTC. Time now 2017-Mar-27 22:25 UTC.
Position N 59°26' E 017°22'.

Length 64 m; draft 3.7 m.

Type: Cargo ship. MMSI: 230987660.

Date/timePositionNaut miles runAvg speedWind from/ knotsBaromVisibWave heightAir tempDewpointWater temp
2017-Mar-26 09:25N 59°26' E 017°22'8 8.6
2017-Mar-26 08:31N 59°20' E 017°31'281 8.0
2017-Mar-24 21:20N 54°48' E 019°39'8 0.3
2017-Mar-23 15:33N 54°41' E 019°47'  
2017-Mar-18 14:33N 55°60' E 016°33'8 8.5
2017-Mar-18 13:33N 55°56' E 016°20'8 8.5
2017-Mar-18 12:33N 55°51' E 016°07'9 8.6
2017-Mar-18 11:33N 55°47' E 015°54'9 8.9
2017-Mar-18 10:33N 55°43' E 015°40'9 9.2
2017-Mar-18 09:33N 55°38' E 015°26'9 9.1
2017-Mar-18 08:33N 55°33' E 015°12'9 9.0
2017-Mar-18 07:33N 55°29' E 014°59'9 8.9
2017-Mar-18 06:33N 55°24' E 014°45'9 9.3
2017-Mar-18 05:33N 55°18' E 014°32'9 8.7
2017-Mar-18 04:33N 55°13' E 014°21'9 8.4
2017-Mar-18 03:30N 55°11' E 014°06'9 8.6
2017-Mar-18 02:29N 55°11' E 013°51'27 8.8
2017-Mar-17 23:27N 55°14' E 013°04'8 8.9
2017-Mar-17 22:33N 55°15' E 012°51'8 8.0
2017-Mar-17 21:33N 55°19' E 012°38'9 8.6
2017-Mar-17 20:33N 55°28' E 012°40'10 9.6
2017-Mar-17 19:33N 55°37' E 012°42'10 9.9
2017-Mar-17 18:33N 55°47' E 012°41'9 9.0
2017-Mar-17 17:33N 55°56' E 012°39'9 8.8
2017-Mar-17 16:33N 56°05' E 012°35'1010.3
2017-Mar-17 15:33N 56°09' E 012°19'9 8.5
2017-Mar-17 14:33N 56°05' E 012°05'9 9.1
2017-Mar-17 13:33N 55°60' E 011°52'4 3.6
2017-Mar-17 12:33N 55°56' E 011°54'  
Track history (hours):
 
Tides and Currents Weather Stations Pressure Air Temp Water Temp Dewpoint Dewpoint Depression Visibility Wind Speed Wind Dir Waves Ship Positions

Nathalie

Last reported at 2017-Mar-26 09:25 UTC. Time now 2017-Mar-27 22:25 UTC.
Position N 59°26' E 017°22'.

Length 64 m; draft 3.7 m.

Type: Cargo ship. MMSI: 230987660.

Date/timePositionNaut miles runAvg speedWind from/ knotsBaromVisibWave heightAir tempDewpointWater temp
2017-Mar-26 09:25N 59°26' E 017°22'8 8.6
2017-Mar-26 08:31N 59°20' E 017°31'281 8.0
2017-Mar-24 21:20N 54°48' E 019°39'8 0.3
2017-Mar-23 15:33N 54°41' E 019°47'  
2017-Mar-18 14:33N 55°60' E 016°33'8 8.5
2017-Mar-18 13:33N 55°56' E 016°20'8 8.5
2017-Mar-18 12:33N 55°51' E 016°07'9 8.6
2017-Mar-18 11:33N 55°47' E 015°54'9 8.9
2017-Mar-18 10:33N 55°43' E 015°40'9 9.2
2017-Mar-18 09:33N 55°38' E 015°26'9 9.1
2017-Mar-18 08:33N 55°33' E 015°12'9 9.0
2017-Mar-18 07:33N 55°29' E 014°59'9 8.9
2017-Mar-18 06:33N 55°24' E 014°45'9 9.3
2017-Mar-18 05:33N 55°18' E 014°32'9 8.7
2017-Mar-18 04:33N 55°13' E 014°21'9 8.4
2017-Mar-18 03:30N 55°11' E 014°06'9 8.6
2017-Mar-18 02:29N 55°11' E 013°51'27 8.8
2017-Mar-17 23:27N 55°14' E 013°04'8 8.9
2017-Mar-17 22:33N 55°15' E 012°51'8 8.0
2017-Mar-17 21:33N 55°19' E 012°38'9 8.6
2017-Mar-17 20:33N 55°28' E 012°40'10 9.6
2017-Mar-17 19:33N 55°37' E 012°42'10 9.9
2017-Mar-17 18:33N 55°47' E 012°41'9 9.0
2017-Mar-17 17:33N 55°56' E 012°39'9 8.8
2017-Mar-17 16:33N 56°05' E 012°35'1010.3
2017-Mar-17 15:33N 56°09' E 012°19'9 8.5
2017-Mar-17 14:33N 56°05' E 012°05'9 9.1
2017-Mar-17 13:33N 55°60' E 011°52'4 3.6
2017-Mar-17 12:33N 55°56' E 011°54'  

Dump ship's entire track history